Time;durP1;ratioP1;P1;durP2;ratioP2;P2;SDS_P1;SDS_P2;PMS_P1;PMS_P2;Temp;Humidity;BMP_temperature;BMP_pressure;BME280_temperature;BME280_humidity;BME280_pressure;Samples;Min_cycle;Max_cycle;Signal;HPM_P1;HPM_P2
2021/07/21 00:00:31;;;;;;;;;;;24.70;47.40;;;;;;1559547;75;825;-70
2021/07/21 00:02:33;;;;;;;;;;;24.70;47.60;;;;;;1546245;75;823;-67
2021/07/21 00:04:35;;;;;;;;;;;24.60;47.30;;;;;;1558381;75;723;-70
2021/07/21 00:06:37;;;;;;;;;;;24.60;47.30;;;;;;1561760;75;742;-69
2021/07/21 00:08:39;;;;;;;;;;;24.70;47.50;;;;;;1556027;75;1197;-70
2021/07/21 00:10:41;;;;;;;;;;;24.70;47.30;;;;;;1569793;75;869;-69
2021/07/21 00:15:05;;;;;;;;;;;24.70;47.20;;;;;;1564032;75;1671;-69
2021/07/21 00:17:18;;;;;;;;;;;24.70;47.10;;;;;;1568817;75;2132;-69
2021/07/21 00:21:30;;;;;;;;;;;24.70;47.00;;;;;;1544431;75;1614;-69
2021/07/21 00:23:32;;;;;;;;;;;24.70;47.00;;;;;;1554705;75;741;-69
2021/07/21 00:25:34;;;;;;;;;;;24.70;46.90;;;;;;1557334;75;786;-68
2021/07/21 00:27:36;;;;;;;;;;;24.70;46.90;;;;;;1560798;75;1126;-69
2021/07/21 00:29:38;;;;;;;;;;;24.70;46.90;;;;;;1558834;75;782;-70
2021/07/21 00:31:40;;;;;;;;;;;24.70;47.00;;;;;;1551476;75;764;-70
2021/07/21 00:33:42;;;;;;;;;;;24.70;47.00;;;;;;1560325;75;787;-69
2021/07/21 00:35:44;;;;;;;;;;;24.70;47.00;;;;;;1553900;75;785;-68
2021/07/21 00:37:46;;;;;;;;;;;24.70;46.90;;;;;;1548052;75;1935;-67
2021/07/21 00:39:48;;;;;;;;;;;24.70;46.80;;;;;;1564455;75;770;-67
2021/07/21 00:41:50;;;;;;;;;;;24.70;46.90;;;;;;1564021;75;818;-68
2021/07/21 00:43:52;;;;;;;;;;;24.70;46.80;;;;;;1555194;75;777;-68
2021/07/21 00:45:54;;;;;;;;;;;24.70;46.70;;;;;;1555208;75;775;-67
2021/07/21 00:47:55;;;;;;;;;;;24.70;46.80;;;;;;1555547;75;1147;-68
2021/07/21 00:49:57;;;;;;;;;;;24.70;46.70;;;;;;1549193;75;739;-69
2021/07/21 00:52:03;;;;;;;;;;;24.70;46.60;;;;;;1563979;75;901;-69
2021/07/21 00:54:03;;;;;;;;;;;24.70;46.60;;;;;;1549550;75;1623;-68
2021/07/21 00:56:05;;;;;;;;;;;24.60;46.40;;;;;;1543356;75;786;-67
2021/07/21 00:58:07;;;;;;;;;;;24.70;46.50;;;;;;1559062;75;1931;-69
2021/07/21 01:00:10;;;;;;;;;;;24.60;46.50;;;;;;1548974;75;795;-69
2021/07/21 01:02:12;;;;;;;;;;;24.70;46.60;;;;;;1555531;75;781;-69
2021/07/21 01:04:14;;;;;;;;;;;24.60;46.40;;;;;;1573027;75;718;-68
2021/07/21 01:06:15;;;;;;;;;;;24.60;46.40;;;;;;1547317;75;761;-66
2021/07/21 01:08:18;;;;;;;;;;;24.60;46.30;;;;;;1549954;75;1168;-69
2021/07/21 01:10:20;;;;;;;;;;;24.60;46.10;;;;;;1562537;75;783;-69
2021/07/21 01:12:23;;;;;;;;;;;24.70;46.10;;;;;;1554715;75;814;-69
2021/07/21 01:14:27;;;;;;;;;;;24.70;46.10;;;;;;1548213;75;980;-69
2021/07/21 01:16:31;;;;;;;;;;;24.70;46.00;;;;;;1557223;75;758;-69
2021/07/21 01:18:33;;;;;;;;;;;24.60;45.90;;;;;;1542429;75;1948;-69
2021/07/21 01:20:37;;;;;;;;;;;24.70;46.00;;;;;;1560959;75;745;-68
2021/07/21 01:22:39;;;;;;;;;;;24.70;46.00;;;;;;1559832;75;1143;-69
2021/07/21 01:24:45;;;;;;;;;;;24.60;45.80;;;;;;1562557;75;657;-66
2021/07/21 01:26:58;;;;;;;;;;;24.60;45.90;;;;;;1562256;75;1962;-70
2021/07/21 01:29:00;;;;;;;;;;;24.70;46.10;;;;;;1569783;74;3037;-68
2021/07/21 01:31:02;;;;;;;;;;;24.70;46.10;;;;;;1598423;73;672;-68
2021/07/21 01:33:06;;;;;;;;;;;24.60;46.00;;;;;;1592150;74;746;-69
2021/07/21 01:35:09;;;;;;;;;;;24.70;46.10;;;;;;1594575;73;801;-68
2021/07/21 01:37:11;;;;;;;;;;;24.70;46.20;;;;;;1583567;74;1922;-66
2021/07/21 01:39:14;;;;;;;;;;;24.70;46.20;;;;;;1567663;73;1230;-68
2021/07/21 01:41:18;;;;;;;;;;;24.60;46.00;;;;;;1565808;74;702;-69
2021/07/21 01:43:20;;;;;;;;;;;24.60;46.00;;;;;;1566055;74;1169;-67
2021/07/21 01:45:22;;;;;;;;;;;24.60;45.90;;;;;;1576390;74;699;-66
2021/07/21 01:47:24;;;;;;;;;;;24.70;45.90;;;;;;1558462;74;652;-67
2021/07/21 01:49:27;;;;;;;;;;;24.70;46.00;;;;;;1551628;74;1152;-67
2021/07/21 01:51:30;;;;;;;;;;;24.70;45.90;;;;;;1571139;74;1118;-67
2021/07/21 01:53:35;;;;;;;;;;;24.60;45.70;;;;;;1575454;74;750;-68
2021/07/21 01:55:38;;;;;;;;;;;24.60;45.70;;;;;;1548920;74;804;-68
2021/07/21 01:57:40;;;;;;;;;;;24.60;45.70;;;;;;1573653;74;1918;-68
2021/07/21 01:59:43;;;;;;;;;;;24.60;45.70;;;;;;1582250;74;1110;-69
2021/07/21 02:01:45;;;;;;;;;;;24.70;45.80;;;;;;1570355;74;754;-70
2021/07/21 02:03:47;;;;;;;;;;;24.60;45.60;;;;;;1552800;75;736;-67
2021/07/21 02:05:49;;;;;;;;;;;24.60;45.70;;;;;;1564892;75;638;-67
2021/07/21 02:07:51;;;;;;;;;;;24.60;45.60;;;;;;1569404;75;588;-68
2021/07/21 02:09:53;;;;;;;;;;;24.60;45.50;;;;;;1557893;74;722;-67
2021/07/21 02:11:55;;;;;;;;;;;24.70;45.50;;;;;;1556593;74;709;-65
2021/07/21 02:14:01;;;;;;;;;;;24.70;45.50;;;;;;1560568;75;774;-67
2021/07/21 02:16:04;;;;;;;;;;;24.60;45.40;;;;;;1575524;74;730;-66
2021/07/21 02:18:06;;;;;;;;;;;24.60;45.40;;;;;;1564698;73;1923;-67
2021/07/21 02:20:09;;;;;;;;;;;24.70;45.50;;;;;;1567503;74;754;-68
2021/07/21 02:22:11;;;;;;;;;;;24.60;45.30;;;;;;1567572;74;710;-67
2021/07/21 02:24:13;;;;;;;;;;;24.70;45.40;;;;;;1572737;74;659;-68
2021/07/21 02:26:15;;;;;;;;;;;24.50;45.30;;;;;;1552947;74;690;-67
2021/07/21 02:28:16;;;;;;;;;;;24.60;45.50;;;;;;1552563;75;1164;-67
2021/07/21 02:30:18;;;;;;;;;;;24.70;45.50;;;;;;1576547;74;736;-66
2021/07/21 02:32:25;;;;;;;;;;;24.50;45.40;;;;;;1562907;75;772;-67
2021/07/21 02:34:27;;;;;;;;;;;24.60;45.30;;;;;;1570532;74;1140;-66
2021/07/21 02:36:31;;;;;;;;;;;24.50;45.30;;;;;;1567390;75;765;-68
2021/07/21 02:38:32;;;;;;;;;;;24.60;45.20;;;;;;1565688;75;1918;-67
2021/07/21 02:40:34;;;;;;;;;;;24.60;45.10;;;;;;1554564;74;661;-64
2021/07/21 02:42:36;;;;;;;;;;;24.60;45.00;;;;;;1553898;75;750;-69
2021/07/21 02:44:38;;;;;;;;;;;24.60;45.00;;;;;;1569774;74;722;-65
2021/07/21 02:46:40;;;;;;;;;;;24.60;45.00;;;;;;1571158;74;737;-67
2021/07/21 02:48:43;;;;;;;;;;;24.60;45.00;;;;;;1567668;75;1183;-67
2021/07/21 02:50:47;;;;;;;;;;;24.60;44.90;;;;;;1552239;75;1706;-69
2021/07/21 02:52:54;;;;;;;;;;;24.50;44.90;;;;;;1549964;74;672;-71
2021/07/21 02:54:58;;;;;;;;;;;24.60;45.30;;;;;;1564142;75;712;-72
2021/07/21 02:57:01;;;;;;;;;;;24.60;45.50;;;;;;1571064;74;673;-72
2021/07/21 02:59:04;;;;;;;;;;;24.60;45.60;;;;;;1569122;74;1950;-76
2021/07/21 03:01:06;;;;;;;;;;;24.60;45.60;;;;;;1554999;75;718;-73
2021/07/21 03:03:09;;;;;;;;;;;24.60;45.70;;;;;;1565323;75;646;-73
2021/07/21 03:05:12;;;;;;;;;;;24.60;45.70;;;;;;1564930;75;790;-72
2021/07/21 03:07:14;;;;;;;;;;;24.60;45.80;;;;;;1549700;75;753;-73
2021/07/21 03:09:16;;;;;;;;;;;24.50;45.90;;;;;;1547948;75;1132;-73
2021/07/21 03:11:18;;;;;;;;;;;24.50;46.00;;;;;;1561904;75;735;-72
2021/07/21 03:13:20;;;;;;;;;;;24.60;46.00;;;;;;1554095;75;744;-73
2021/07/21 03:15:22;;;;;;;;;;;24.60;46.10;;;;;;1556991;74;750;-73
2021/07/21 03:17:24;;;;;;;;;;;24.50;46.20;;;;;;1551299;74;735;-74
2021/07/21 03:19:26;;;;;;;;;;;24.50;46.30;;;;;;1548981;74;1951;-73
2021/07/21 03:21:28;;;;;;;;;;;24.60;46.40;;;;;;1545963;74;706;-73
2021/07/21 03:23:30;;;;;;;;;;;24.60;46.50;;;;;;1559845;75;718;-72
2021/07/21 03:25:32;;;;;;;;;;;24.60;46.50;;;;;;1569059;75;726;-74
2021/07/21 03:27:37;;;;;;;;;;;24.50;46.60;;;;;;1566740;74;715;-73
2021/07/21 03:29:39;;;;;;;;;;;24.50;46.60;;;;;;1554498;74;1212;-74
2021/07/21 03:31:41;;;;;;;;;;;24.50;46.70;;;;;;1561882;74;770;-72
2021/07/21 03:33:45;;;;;;;;;;;24.50;46.80;;;;;;1568277;74;719;-74
2021/07/21 03:35:47;;;;;;;;;;;24.50;46.90;;;;;;1565318;75;830;-69
2021/07/21 03:37:48;;;;;;;;;;;24.60;47.00;;;;;;1578771;74;1930;-73
2021/07/21 03:39:58;;;;;;;;;;;24.50;46.90;;;;;;1568448;74;1164;-74
2021/07/21 03:41:59;;;;;;;;;;;24.60;47.00;;;;;;1565290;74;710;-74
2021/07/21 03:44:05;;;;;;;;;;;24.50;47.00;;;;;;1556748;74;711;-72
2021/07/21 03:46:07;;;;;;;;;;;24.50;47.00;;;;;;1571464;74;699;-73
2021/07/21 03:48:09;;;;;;;;;;;24.60;47.10;;;;;;1565141;74;1127;-72
2021/07/21 03:50:11;;;;;;;;;;;24.50;47.20;;;;;;1566139;74;751;-74
2021/07/21 03:52:13;;;;;;;;;;;24.50;47.20;;;;;;1565288;74;745;-76
2021/07/21 03:54:15;;;;;;;;;;;24.60;47.30;;;;;;1558477;74;737;-77
2021/07/21 03:56:17;;;;;;;;;;;24.50;47.40;;;;;;1555383;75;748;-75
2021/07/21 03:58:19;;;;;;;;;;;24.60;47.40;;;;;;1566297;74;1934;-75
2021/07/21 04:00:21;;;;;;;;;;;24.50;47.40;;;;;;1580388;74;723;-78
2021/07/21 04:02:23;;;;;;;;;;;24.60;47.50;;;;;;1569948;74;741;-76
2021/07/21 04:04:25;;;;;;;;;;;24.60;47.50;;;;;;1579735;74;704;-76
2021/07/21 04:06:29;;;;;;;;;;;24.50;47.60;;;;;;1557645;74;712;-75
2021/07/21 04:08:31;;;;;;;;;;;24.60;47.60;;;;;;1562365;74;1167;-74
2021/07/21 04:10:33;;;;;;;;;;;24.60;47.60;;;;;;1553195;75;692;-75
2021/07/21 04:12:35;;;;;;;;;;;24.60;47.60;;;;;;1558564;74;716;-76
2021/07/21 04:14:37;;;;;;;;;;;24.50;47.60;;;;;;1561836;74;710;-73
2021/07/21 04:16:39;;;;;;;;;;;24.50;47.60;;;;;;1565768;74;671;-73
2021/07/21 04:18:40;;;;;;;;;;;24.60;47.70;;;;;;1573457;74;1947;-70
2021/07/21 04:20:42;;;;;;;;;;;24.50;47.60;;;;;;1570109;74;710;-74
2021/07/21 04:22:44;;;;;;;;;;;24.50;47.70;;;;;;1556827;75;740;-72
2021/07/21 04:24:46;;;;;;;;;;;24.50;47.70;;;;;;1538945;76;725;-72
2021/07/21 04:26:48;;;;;;;;;;;24.60;47.80;;;;;;1559313;75;736;-74
2021/07/21 04:28:50;;;;;;;;;;;24.50;47.80;;;;;;1564870;73;1268;-72
2021/07/21 04:30:53;;;;;;;;;;;24.60;47.80;;;;;;1553093;75;789;-71
2021/07/21 04:32:55;;;;;;;;;;;24.60;47.80;;;;;;1557706;74;923;-73
2021/07/21 04:34:57;;;;;;;;;;;24.60;47.80;;;;;;1565494;74;734;-71
2021/07/21 04:36:59;;;;;;;;;;;24.60;47.80;;;;;;1569942;74;717;-72
2021/07/21 04:39:01;;;;;;;;;;;24.50;47.90;;;;;;1559173;75;1940;-75
2021/07/21 04:41:03;;;;;;;;;;;24.50;47.90;;;;;;1575993;74;721;-75
2021/07/21 04:43:06;;;;;;;;;;;24.60;48.00;;;;;;1562433;75;745;-75
2021/07/21 04:45:09;;;;;;;;;;;24.60;47.90;;;;;;1569980;74;774;-76
2021/07/21 04:47:11;;;;;;;;;;;24.50;47.90;;;;;;1546196;76;799;-73
2021/07/21 04:49:14;;;;;;;;;;;24.50;47.90;;;;;;1535123;76;1206;-73
2021/07/21 04:51:17;;;;;;;;;;;24.50;48.00;;;;;;1557648;74;715;-75
2021/07/21 04:53:19;;;;;;;;;;;24.50;48.00;;;;;;1564512;74;717;-74
2021/07/21 04:55:21;;;;;;;;;;;24.60;48.10;;;;;;1554725;75;694;-76
2021/07/21 04:57:24;;;;;;;;;;;24.50;48.10;;;;;;1570957;74;720;-73
2021/07/21 04:59:26;;;;;;;;;;;24.50;48.20;;;;;;1574583;74;1921;-73
2021/07/21 05:01:28;;;;;;;;;;;24.60;48.20;;;;;;1554168;74;794;-73
2021/07/21 05:03:29;;;;;;;;;;;24.50;48.20;;;;;;1569884;74;742;-73
2021/07/21 05:05:31;;;;;;;;;;;24.70;48.40;;;;;;1552942;76;695;-73
2021/07/21 05:07:33;;;;;;;;;;;24.60;48.30;;;;;;1575868;75;721;-73
2021/07/21 05:09:35;;;;;;;;;;;24.60;48.30;;;;;;1553653;74;1076;-72
2021/07/21 05:11:37;;;;;;;;;;;24.60;48.30;;;;;;1543349;75;789;-69
2021/07/21 05:13:40;;;;;;;;;;;24.60;48.40;;;;;;1553632;74;807;-72
2021/07/21 05:15:44;;;;;;;;;;;24.60;48.40;;;;;;1553145;74;775;-73
2021/07/21 05:17:45;;;;;;;;;;;24.60;48.40;;;;;;1552639;74;1133;-72
2021/07/21 05:19:47;;;;;;;;;;;24.60;48.50;;;;;;1552652;74;1937;-73
2021/07/21 05:21:52;;;;;;;;;;;24.50;48.50;;;;;;1542221;74;768;-73
2021/07/21 05:23:53;;;;;;;;;;;24.60;48.60;;;;;;1546181;74;1177;-73
2021/07/21 05:25:55;;;;;;;;;;;24.60;48.60;;;;;;1549764;74;705;-72
2021/07/21 05:27:56;;;;;;;;;;;24.50;48.70;;;;;;1566000;74;1172;-75
2021/07/21 05:29:58;;;;;;;;;;;24.60;48.70;;;;;;1553157;75;651;-74
2021/07/21 05:32:00;;;;;;;;;;;24.60;48.80;;;;;;1555823;74;781;-76
2021/07/21 05:34:02;;;;;;;;;;;24.60;48.80;;;;;;1567734;74;672;-66
2021/07/21 05:36:04;;;;;;;;;;;24.60;49.00;;;;;;1559625;75;697;-70
2021/07/21 05:38:06;;;;;;;;;;;24.70;48.80;;;;;;1563616;74;1353;-71
2021/07/21 05:40:08;;;;;;;;;;;24.80;48.10;;;;;;1558454;74;1934;-70
2021/07/21 05:42:10;;;;;;;;;;;24.70;48.10;;;;;;1552983;74;831;-69
2021/07/21 05:44:12;;;;;;;;;;;24.70;48.00;;;;;;1559497;74;776;-70
2021/07/21 05:46:14;;;;;;;;;;;24.70;47.90;;;;;;1563369;75;611;-71
2021/07/21 05:48:16;;;;;;;;;;;24.60;47.70;;;;;;1572192;74;1189;-70
2021/07/21 05:50:18;;;;;;;;;;;24.60;47.70;;;;;;1561851;74;1189;-70
2021/07/21 05:52:20;;;;;;;;;;;24.60;47.80;;;;;;1563258;75;669;-70
2021/07/21 05:54:22;;;;;;;;;;;24.60;47.80;;;;;;1564491;74;687;-69
2021/07/21 05:56:26;;;;;;;;;;;24.50;48.00;;;;;;1564121;74;708;-69
2021/07/21 05:58:27;;;;;;;;;;;24.70;48.20;;;;;;1546200;74;2369;-67
2021/07/21 06:00:30;;;;;;;;;;;24.70;48.30;;;;;;1559258;74;1940;-66
2021/07/21 06:02:32;;;;;;;;;;;24.60;48.10;;;;;;1552446;74;711;-68
2021/07/21 06:04:34;;;;;;;;;;;24.60;48.10;;;;;;1577654;74;817;-65
2021/07/21 06:06:35;;;;;;;;;;;24.70;48.40;;;;;;1570539;74;786;-69
2021/07/21 06:08:37;;;;;;;;;;;24.70;48.30;;;;;;1564265;74;1164;-68
2021/07/21 06:10:40;;;;;;;;;;;24.80;48.40;;;;;;1563865;74;732;-70
2021/07/21 06:12:42;;;;;;;;;;;24.80;48.30;;;;;;1564683;75;744;-70
2021/07/21 06:14:44;;;;;;;;;;;24.80;48.00;;;;;;1566963;74;727;-71
2021/07/21 06:16:45;;;;;;;;;;;24.80;47.90;;;;;;1565429;75;769;-71
2021/07/21 06:18:47;;;;;;;;;;;24.90;48.00;;;;;;1572165;73;1944;-70
2021/07/21 06:20:49;;;;;;;;;;;24.80;47.80;;;;;;1554157;74;682;-68
2021/07/21 06:22:51;;;;;;;;;;;24.90;47.70;;;;;;1567142;74;721;-70
2021/07/21 06:24:53;;;;;;;;;;;25.00;47.40;;;;;;1564739;75;784;-70
2021/07/21 06:26:55;;;;;;;;;;;25.00;47.20;;;;;;1564542;74;773;-70
2021/07/21 06:28:57;;;;;;;;;;;25.00;47.20;;;;;;1564904;74;1214;-70
2021/07/21 06:30:59;;;;;;;;;;;25.00;47.30;;;;;;1565125;75;729;-70
2021/07/21 06:33:01;;;;;;;;;;;25.00;47.20;;;;;;1566727;74;693;-71
2021/07/21 06:35:04;;;;;;;;;;;25.00;47.20;;;;;;1561707;74;787;-69
2021/07/21 06:37:08;;;;;;;;;;;25.10;47.20;;;;;;1564290;74;679;-70
2021/07/21 06:39:09;;;;;;;;;;;25.10;47.10;;;;;;1562841;74;1984;-70
2021/07/21 06:41:13;;;;;;;;;;;25.10;47.10;;;;;;1568312;74;734;-70
2021/07/21 06:43:15;;;;;;;;;;;25.10;46.90;;;;;;1561322;75;1129;-68
2021/07/21 06:45:17;;;;;;;;;;;25.10;46.90;;;;;;1549346;74;773;-69
2021/07/21 06:47:20;;;;;;;;;;;25.10;46.40;;;;;;1572293;74;765;-69
2021/07/21 06:49:22;;;;;;;;;;;25.10;46.40;;;;;;1557656;75;1121;-71
2021/07/21 06:51:24;;;;;;;;;;;25.20;46.40;;;;;;1551754;75;673;-70
2021/07/21 06:53:30;;;;;;;;;;;25.20;45.40;;;;;;1565095;74;777;-72
2021/07/21 06:55:30;;;;;;;;;;;25.20;46.00;;;;;;1550066;74;992;-70
2021/07/21 06:57:32;;;;;;;;;;;25.20;45.80;;;;;;1551876;74;787;-70
2021/07/21 06:59:36;;;;;;;;;;;25.20;45.70;;;;;;1575617;74;1941;-69
2021/07/21 07:01:37;;;;;;;;;;;25.20;45.90;;;;;;1571170;74;1588;-68
2021/07/21 07:03:39;;;;;;;;;;;25.20;45.90;;;;;;1555495;74;668;-68
2021/07/21 07:05:41;;;;;;;;;;;25.30;45.90;;;;;;1550791;74;739;-68
2021/07/21 07:07:43;;;;;;;;;;;25.30;46.00;;;;;;1550591;74;743;-71
2021/07/21 07:09:44;;;;;;;;;;;25.40;45.90;;;;;;1550599;74;1079;-68
2021/07/21 07:11:46;;;;;;;;;;;25.40;45.90;;;;;;1550588;74;701;-68
2021/07/21 07:13:48;;;;;;;;;;;25.30;45.80;;;;;;1548249;74;706;-68
2021/07/21 07:15:50;;;;;;;;;;;25.40;45.70;;;;;;1557173;75;719;-70
2021/07/21 07:17:53;;;;;;;;;;;25.40;45.70;;;;;;1546726;75;1119;-69
2021/07/21 07:19:54;;;;;;;;;;;25.50;45.60;;;;;;1546827;74;1937;-68
2021/07/21 07:21:59;;;;;;;;;;;25.50;45.50;;;;;;1543412;74;755;-70
2021/07/21 07:24:00;;;;;;;;;;;25.40;45.00;;;;;;1544421;74;1622;-68
2021/07/21 07:26:02;;;;;;;;;;;25.50;45.50;;;;;;1546825;75;711;-72
2021/07/21 07:28:12;;;;;;;;;;;25.60;45.20;;;;;;1560226;74;1140;-70
2021/07/21 07:30:15;;;;;;;;;;;25.50;45.50;;;;;;1544243;74;700;-70
2021/07/21 07:32:16;;;;;;;;;;;25.60;45.30;;;;;;1545719;74;805;-70
2021/07/21 07:34:19;;;;;;;;;;;25.50;45.30;;;;;;1549859;74;694;-71
2021/07/21 07:36:21;;;;;;;;;;;25.60;45.20;;;;;;1551480;74;744;-69
2021/07/21 07:38:23;;;;;;;;;;;25.60;45.10;;;;;;1569496;73;1168;-71
2021/07/21 07:40:24;;;;;;;;;;;25.60;45.10;;;;;;1544690;75;1947;-72
2021/07/21 07:42:26;;;;;;;;;;;25.60;44.70;;;;;;1552133;74;722;-69
2021/07/21 07:44:28;;;;;;;;;;;25.60;45.00;;;;;;1551259;74;726;-70
2021/07/21 07:46:30;;;;;;;;;;;25.60;45.00;;;;;;1553048;74;787;-70
2021/07/21 07:48:32;;;;;;;;;;;25.60;45.00;;;;;;1548567;74;1157;-70
2021/07/21 07:50:34;;;;;;;;;;;25.70;45.00;;;;;;1556283;74;771;-70
2021/07/21 07:52:37;;;;;;;;;;;25.70;45.00;;;;;;1546726;75;726;-71
2021/07/21 07:54:38;;;;;;;;;;;25.70;44.90;;;;;;1555348;74;715;-70
2021/07/21 07:56:40;;;;;;;;;;;25.70;44.90;;;;;;1550534;74;725;-70
2021/07/21 07:58:42;;;;;;;;;;;25.70;44.80;;;;;;1531483;76;1191;-70
2021/07/21 08:00:44;;;;;;;;;;;25.70;44.80;;;;;;1551573;74;1940;-71
2021/07/21 08:02:46;;;;;;;;;;;25.70;44.50;;;;;;1550732;74;737;-72
2021/07/21 08:04:48;;;;;;;;;;;25.70;44.40;;;;;;1546728;74;731;-71
2021/07/21 08:06:50;;;;;;;;;;;25.70;44.40;;;;;;1555906;74;686;-70
2021/07/21 08:08:52;;;;;;;;;;;25.60;43.90;;;;;;1550574;74;1105;-68
2021/07/21 08:10:53;;;;;;;;;;;25.60;44.30;;;;;;1546797;74;703;-70
2021/07/21 08:12:55;;;;;;;;;;;25.70;44.30;;;;;;1548157;75;705;-72
2021/07/21 08:14:57;;;;;;;;;;;25.70;44.30;;;;;;1550768;74;696;-70
2021/07/21 08:16:59;;;;;;;;;;;25.70;44.20;;;;;;1560484;74;670;-71
2021/07/21 08:19:01;;;;;;;;;;;25.70;44.20;;;;;;1553742;74;1156;-72
2021/07/21 08:21:03;;;;;;;;;;;25.70;44.30;;;;;;1551002;74;1941;-70
2021/07/21 08:23:05;;;;;;;;;;;25.70;44.30;;;;;;1559480;74;667;-70
2021/07/21 08:25:08;;;;;;;;;;;25.70;44.30;;;;;;1549028;74;800;-71
2021/07/21 08:27:10;;;;;;;;;;;25.60;43.70;;;;;;1552641;75;724;-70
2021/07/21 08:29:12;;;;;;;;;;;25.70;44.30;;;;;;1548608;75;1201;-70
2021/07/21 08:31:14;;;;;;;;;;;25.70;44.20;;;;;;1543694;74;602;-72
2021/07/21 08:33:16;;;;;;;;;;;25.70;43.80;;;;;;1551728;75;835;-69
2021/07/21 08:35:21;;;;;;;;;;;25.70;44.20;;;;;;1566993;74;769;-70
2021/07/21 08:37:23;;;;;;;;;;;25.70;44.30;;;;;;1553033;75;704;-70
2021/07/21 08:39:25;;;;;;;;;;;25.70;44.30;;;;;;1555986;74;1115;-69
2021/07/21 08:41:27;;;;;;;;;;;25.70;44.30;;;;;;1559491;74;1989;-71
2021/07/21 08:43:28;;;;;;;;;;;25.70;44.30;;;;;;1556057;74;723;-72
2021/07/21 08:45:30;;;;;;;;;;;25.80;44.20;;;;;;1558839;74;691;-70
2021/07/21 08:47:32;;;;;;;;;;;25.80;44.20;;;;;;1555295;75;723;-70
2021/07/21 08:49:34;;;;;;;;;;;25.80;44.30;;;;;;1560521;75;1118;-71
2021/07/21 08:51:36;;;;;;;;;;;25.70;44.20;;;;;;1566911;75;839;-70
2021/07/21 08:53:38;;;;;;;;;;;25.70;44.20;;;;;;1567565;75;764;-71
2021/07/21 08:55:40;;;;;;;;;;;25.70;44.10;;;;;;1560854;75;826;-70
2021/07/21 08:57:42;;;;;;;;;;;25.80;44.20;;;;;;1567759;74;679;-70
2021/07/21 08:59:44;;;;;;;;;;;25.70;43.90;;;;;;1575888;74;1950;-72
2021/07/21 09:01:46;;;;;;;;;;;25.70;43.90;;;;;;1579700;74;726;-73
2021/07/21 09:03:49;;;;;;;;;;;25.80;44.00;;;;;;1574294;74;759;-73
2021/07/21 09:05:53;;;;;;;;;;;25.70;43.90;;;;;;1563545;74;666;-71
2021/07/21 09:07:55;;;;;;;;;;;25.70;43.70;;;;;;1575189;74;1093;-70
2021/07/21 09:09:57;;;;;;;;;;;25.70;43.90;;;;;;1578898;74;742;-70
2021/07/21 09:11:59;;;;;;;;;;;25.80;43.60;;;;;;1548665;75;785;-70
2021/07/21 09:14:01;;;;;;;;;;;25.70;43.90;;;;;;1564089;74;770;-71
2021/07/21 09:16:04;;;;;;;;;;;25.80;43.90;;;;;;1551083;74;725;-71
2021/07/21 09:18:07;;;;;;;;;;;25.70;43.90;;;;;;1581676;75;1144;-70
2021/07/21 09:20:11;;;;;;;;;;;25.80;43.90;;;;;;1566730;74;1906;-73
2021/07/21 09:22:16;;;;;;;;;;;25.70;43.90;;;;;;1553160;75;1081;-68
2021/07/21 09:24:21;;;;;;;;;;;25.80;43.60;;;;;;1565057;74;719;-71
2021/07/21 09:26:24;;;;;;;;;;;25.70;43.60;;;;;;1557063;75;807;-68
2021/07/21 09:28:28;;;;;;;;;;;25.80;43.60;;;;;;1569997;73;1155;-70
2021/07/21 09:30:31;;;;;;;;;;;25.80;43.70;;;;;;1570893;75;1133;-70
2021/07/21 09:32:35;;;;;;;;;;;25.70;43.60;;;;;;1572455;74;710;-67
2021/07/21 09:34:36;;;;;;;;;;;25.70;43.50;;;;;;1564173;75;1658;-69
2021/07/21 09:36:39;;;;;;;;;;;25.70;43.60;;;;;;1568538;75;672;-70
2021/07/21 09:38:40;;;;;;;;;;;25.70;43.30;;;;;;1554052;73;1142;-69
2021/07/21 09:40:44;;;;;;;;;;;25.60;43.60;;;;;;1554504;75;1935;-70
2021/07/21 09:42:46;;;;;;;;;;;25.60;43.70;;;;;;1545130;74;1690;-68
2021/07/21 09:44:48;;;;;;;;;;;25.70;43.60;;;;;;1511401;76;752;-71
2021/07/21 09:46:50;;;;;;;;;;;25.70;43.70;;;;;;1527799;76;632;-70
2021/07/21 09:48:52;;;;;;;;;;;25.60;43.00;;;;;;1536583;76;1169;-71
2021/07/21 09:50:53;;;;;;;;;;;25.60;43.60;;;;;;1523356;76;733;-71
2021/07/21 09:52:57;;;;;;;;;;;25.70;43.50;;;;;;1536443;76;690;-71
2021/07/21 09:55:13;;;;;;;;;;;25.70;43.40;;;;;;1501233;78;738;-71
2021/07/21 09:57:15;;;;;;;;;;;25.70;43.40;;;;;;1532786;76;606;-73
2021/07/21 09:59:24;;;;;;;;;;;25.70;43.50;;;;;;1535898;76;1142;-68
2021/07/21 10:01:31;;;;;;;;;;;25.70;43.20;;;;;;1532098;76;1927;-72
2021/07/21 10:03:39;;;;;;;;;;;25.60;43.30;;;;;;1521964;76;702;-70
2021/07/21 10:06:00;;;;;;;;;;;25.70;43.20;;;;;;1492631;77;1183;-72
2021/07/21 10:08:04;;;;;;;;;;;25.70;43.30;;;;;;1495511;77;1145;-70
2021/07/21 10:10:16;;;;;;;;;;;25.60;43.30;;;;;;1494614;77;726;-70
2021/07/21 10:12:18;;;;;;;;;;;25.60;43.30;;;;;;1478691;77;1033;-69
2021/07/21 10:14:20;;;;;;;;;;;25.60;43.30;;;;;;1494328;77;819;-71
2021/07/21 10:16:43;;;;;;;;;;;25.60;42.90;;;;;;1503157;77;783;-71
2021/07/21 10:18:46;;;;;;;;;;;25.70;43.30;;;;;;1495832;77;1105;-71
2021/07/21 10:20:48;;;;;;;;;;;25.60;43.50;;;;;;1504751;77;1919;-68
2021/07/21 10:22:50;;;;;;;;;;;25.70;43.40;;;;;;1497311;77;792;-69
2021/07/21 10:24:52;;;;;;;;;;;25.50;43.40;;;;;;1498984;77;721;-69
2021/07/21 10:26:54;;;;;;;;;;;25.50;43.60;;;;;;1511516;77;783;-69
2021/07/21 10:28:56;;;;;;;;;;;25.60;43.70;;;;;;1501826;78;1194;-69
2021/07/21 10:30:58;;;;;;;;;;;25.60;43.60;;;;;;1531148;76;711;-69
2021/07/21 10:33:00;;;;;;;;;;;25.60;43.60;;;;;;1526636;76;687;-69
2021/07/21 10:35:02;;;;;;;;;;;25.60;43.60;;;;;;1512586;77;788;-70
2021/07/21 10:37:04;;;;;;;;;;;25.70;43.50;;;;;;1507513;77;805;-70
2021/07/21 10:39:11;;;;;;;;;;;25.60;43.60;;;;;;1535121;76;1132;-70
2021/07/21 10:41:13;;;;;;;;;;;25.50;43.50;;;;;;1507860;77;1941;-71
2021/07/21 10:43:16;;;;;;;;;;;25.50;43.60;;;;;;1514292;77;808;-70
2021/07/21 10:45:21;;;;;;;;;;;25.60;43.60;;;;;;1524356;77;822;-70
2021/07/21 10:47:24;;;;;;;;;;;25.50;43.70;;;;;;1505634;78;774;-70
2021/07/21 10:49:38;;;;;;;;;;;25.50;43.60;;;;;;1493317;77;1154;-69
2021/07/21 10:52:09;;;;;;;;;;;25.50;43.70;;;;;;1518921;76;1259;-70
2021/07/21 10:53:58;;;;;;;;;;;25.50;43.70;;;;;;1512029;78;969;-71
2021/07/21 11:00:38;;;;;;;;;;;25.40;43.60;;;;;;1481015;78;1918;-68
2021/07/21 11:02:40;;;;;;;;;;;25.40;43.80;;;;;;1529680;76;740;-70
2021/07/21 11:04:42;;;;;;;;;;;25.50;43.80;;;;;;1529934;76;718;-70
2021/07/21 11:06:45;;;;;;;;;;;25.40;43.00;;;;;;1533453;76;804;-71
2021/07/21 11:08:50;;;;;;;;;;;25.50;43.80;;;;;;1532316;76;1158;-69
2021/07/21 11:10:53;;;;;;;;;;;25.50;43.80;;;;;;1514380;77;748;-71
2021/07/21 11:12:55;;;;;;;;;;;25.40;43.90;;;;;;1515430;77;719;-70
2021/07/21 11:14:57;;;;;;;;;;;25.40;43.90;;;;;;1512934;77;695;-70
2021/07/21 11:17:09;;;;;;;;;;;25.50;44.00;;;;;;1508500;77;713;-70
2021/07/21 11:19:24;;;;;;;;;;;25.40;44.00;;;;;;1506935;77;1145;-70
2021/07/21 11:21:26;;;;;;;;;;;25.40;44.20;;;;;;1527803;76;1917;-71
2021/07/21 11:23:40;;;;;;;;;;;25.40;44.20;;;;;;1523619;76;788;-70
2021/07/21 11:25:42;;;;;;;;;;;25.40;44.20;;;;;;1519661;76;791;-70
2021/07/21 11:27:53;;;;;;;;;;;25.40;44.00;;;;;;1490903;78;744;-70
2021/07/21 11:29:52;;;;;;;;;;;25.40;44.00;;;;;;1486403;77;1387;-70
2021/07/21 11:31:57;;;;;;;;;;;25.40;44.00;;;;;;1511099;76;705;-70
2021/07/21 11:34:01;;;;;;;;;;;25.40;44.10;;;;;;1494536;77;844;-71
2021/07/21 11:36:03;;;;;;;;;;;25.40;44.10;;;;;;1496587;77;1588;-70
2021/07/21 11:38:06;;;;;;;;;;;25.30;44.20;;;;;;1504265;77;1133;-70
2021/07/21 11:40:15;;;;;;;;;;;25.40;44.10;;;;;;1495971;77;1079;-71
2021/07/21 11:42:29;;;;;;;;;;;25.40;44.10;;;;;;1492960;77;1945;-70
2021/07/21 11:44:32;;;;;;;;;;;25.40;44.20;;;;;;1506492;77;1963;-70
2021/07/21 11:46:34;;;;;;;;;;;25.30;44.30;;;;;;1525460;76;753;-69
2021/07/21 11:48:36;;;;;;;;;;;25.30;44.30;;;;;;1520275;77;1168;-69
2021/07/21 11:50:40;;;;;;;;;;;25.40;44.40;;;;;;1567665;74;782;-72
2021/07/21 11:52:42;;;;;;;;;;;25.40;44.40;;;;;;1572428;74;732;-69
2021/07/21 11:54:44;;;;;;;;;;;25.30;44.40;;;;;;1555288;74;717;-66
2021/07/21 11:56:47;;;;;;;;;;;25.30;44.40;;;;;;1558888;74;720;-70
2021/07/21 11:58:48;;;;;;;;;;;25.40;44.50;;;;;;1570961;74;1096;-69
2021/07/21 12:00:51;;;;;;;;;;;25.30;44.40;;;;;;1575476;74;1947;-70
2021/07/21 12:02:59;;;;;;;;;;;25.30;43.60;;;;;;1555488;75;703;-72
2021/07/21 12:05:03;;;;;;;;;;;25.30;44.40;;;;;;1547314;74;788;-72
2021/07/21 12:07:05;;;;;;;;;;;25.40;44.40;;;;;;1556624;74;772;-70
2021/07/21 12:09:07;;;;;;;;;;;25.40;44.40;;;;;;1550436;75;1156;-70
2021/07/21 12:11:13;;;;;;;;;;;25.30;44.20;;;;;;1560574;74;764;-70
2021/07/21 12:13:15;;;;;;;;;;;25.30;44.30;;;;;;1565483;75;733;-70
2021/07/21 12:15:17;;;;;;;;;;;25.40;44.40;;;;;;1549420;74;735;-70
2021/07/21 12:17:19;;;;;;;;;;;25.30;44.50;;;;;;1548331;75;675;-70
2021/07/21 12:19:25;;;;;;;;;;;25.30;44.70;;;;;;1542960;74;1144;-70
2021/07/21 12:21:28;;;;;;;;;;;25.30;44.50;;;;;;1555711;74;1925;-70